This is the latest recevied weather packets stored in our database for station/object HS2XQB-3. If no packets are shown the sender has not sent any weather packets the latest 10 day(s).
| Time | Temp. | Humidity | Pressure | Rain* | Wind** | Luminosity | Snow |
|---|---|---|---|---|---|---|---|
| 1777912164 | 23.89° C | 82% | 1007 hPa | - | - | 0 W/m² | - |
| 1777910341 | 23.89° C | 82% | 1007 hPa | - | - | 0 W/m² | - |
| 1777908519 | 23.89° C | 85% | 1007 hPa | - | - | 0 W/m² | - |
| 1777906697 | 23.33° C | 77% | 1007 hPa | - | - | 0 W/m² | - |
| 1777904875 | 24.44° C | 88% | 1006 hPa | - | - | 0 W/m² | - |
| 1777903053 | 23.89° C | 86% | 1006 hPa | - | - | 0 W/m² | - |
| 1777901230 | 23.89° C | 81% | 1005 hPa | - | - | 0 W/m² | - |
| 1777899408 | 23.89° C | 77% | 1005 hPa | - | - | 0 W/m² | - |
| 1777897586 | 23.89° C | 85% | 1004 hPa | - | - | 0 W/m² | - |
| 1777895763 | 23.89° C | 86% | 1003 hPa | - | - | 0 W/m² | - |
| 1777893940 | 23.89° C | 83% | 1003 hPa | - | - | 0 W/m² | - |
| 1777892118 | 23.89° C | 80% | 1003 hPa | - | - | 0 W/m² | - |
| 1777890296 | 23.89° C | 78% | 1003 hPa | - | - | 0 W/m² | - |
| 1777888474 | 23.89° C | 78% | 1004 hPa | - | - | 0 W/m² | - |
| 1777886652 | 23.33° C | 72% | 1004 hPa | - | - | 0 W/m² | - |
| 1777884830 | 23.89° C | 76% | 1004 hPa | - | - | 0 W/m² | - |
| 1777883008 | 23.33° C | 62% | 1005 hPa | - | - | 0 W/m² | - |
| 1777880935 | 23.89° C | 54% | 1004 hPa | - | - | 0 W/m² | - |
| 1777879113 | 23.89° C | 52% | 1004 hPa | - | - | 0 W/m² | - |
| 1777877291 | 23.89° C | 50% | 1004 hPa | - | - | 0 W/m² | - |
| 1777875469 | 23.89° C | 48% | 1005 hPa | - | - | 0 W/m² | - |
| 1777873648 | 25° C | 54% | 1005 hPa | - | - | 0 W/m² | - |
| 1777871825 | 24.44° C | 52% | 1005 hPa | - | - | 0 W/m² | - |
| 1777870003 | 24.44° C | 45% | 1006 hPa | - | - | 0 W/m² | - |
| 1777868181 | 25° C | 56% | 1006 hPa | - | - | 0 W/m² | - |
* Rain since midnight (hover to see other rain measurements)
** Current wind speed in m/s (hover to see current wind gust speed)